sensor_id;sensor_type;location;lat;lon;timestamp;pressure;altitude;pressure_sealevel;temperature;humidity
70053;BME280;57398;52.032;4.376;2023-11-21T00:01:33;101646.00;;;6.12;100.00
70053;BME280;57398;52.032;4.376;2023-11-21T00:04:21;101651.63;;;6.15;100.00
70053;BME280;57398;52.032;4.376;2023-11-21T00:07:09;101662.88;;;6.22;100.00
70053;BME280;57398;52.032;4.376;2023-11-21T00:09:58;101663.16;;;6.27;100.00
70053;BME280;57398;52.032;4.376;2023-11-21T00:12:47;101659.25;;;6.32;100.00
70053;BME280;57398;52.032;4.376;2023-11-21T00:15:35;101663.28;;;6.34;100.00
70053;BME280;57398;52.032;4.376;2023-11-21T00:18:23;101670.88;;;6.36;100.00
70053;BME280;57398;52.032;4.376;2023-11-21T00:21:11;101680.31;;;6.43;100.00
70053;BME280;57398;52.032;4.376;2023-11-21T00:23:59;101674.53;;;6.41;100.00
70053;BME280;57398;52.032;4.376;2023-11-21T00:26:50;101675.13;;;6.52;100.00
70053;BME280;57398;52.032;4.376;2023-11-21T00:29:39;101682.88;;;6.52;100.00
70053;BME280;57398;52.032;4.376;2023-11-21T00:32:27;101684.47;;;6.53;100.00
70053;BME280;57398;52.032;4.376;2023-11-21T00:35:15;101690.91;;;6.57;100.00
70053;BME280;57398;52.032;4.376;2023-11-21T00:38:03;101691.66;;;6.65;100.00
70053;BME280;57398;52.032;4.376;2023-11-21T00:40:51;101686.16;;;6.68;100.00
70053;BME280;57398;52.032;4.376;2023-11-21T00:43:42;101702.75;;;6.74;100.00
70053;BME280;57398;52.032;4.376;2023-11-21T00:46:32;101695.94;;;6.81;100.00
70053;BME280;57398;52.032;4.376;2023-11-21T00:49:20;101704.75;;;6.87;100.00
70053;BME280;57398;52.032;4.376;2023-11-21T00:52:08;101710.75;;;6.87;100.00
70053;BME280;57398;52.032;4.376;2023-11-21T00:54:57;101716.34;;;6.91;100.00
70053;BME280;57398;52.032;4.376;2023-11-21T00:57:46;101726.97;;;6.96;100.00
70053;BME280;57398;52.032;4.376;2023-11-21T01:00:34;101729.53;;;6.96;100.00
70053;BME280;57398;52.032;4.376;2023-11-21T01:03:23;101731.84;;;6.91;100.00
70053;BME280;57398;52.032;4.376;2023-11-21T01:06:12;101752.63;;;6.98;100.00
70053;BME280;57398;52.032;4.376;2023-11-21T01:09:02;101760.38;;;6.98;100.00
70053;BME280;57398;52.032;4.376;2023-11-21T01:11:54;101789.31;;;6.93;100.00
70053;BME280;57398;52.032;4.376;2023-11-21T01:14:43;101782.88;;;6.89;100.00
70053;BME280;57398;52.032;4.376;2023-11-21T01:17:32;101790.63;;;6.89;100.00
70053;BME280;57398;52.032;4.376;2023-11-21T01:20:22;101808.53;;;6.90;100.00
70053;BME280;57398;52.032;4.376;2023-11-21T01:23:10;101849.84;;;6.90;100.00
70053;BME280;57398;52.032;4.376;2023-11-21T01:25:58;101996.59;;;6.95;100.00
70053;BME280;57398;52.032;4.376;2023-11-21T01:28:46;102006.91;;;6.95;100.00
70053;BME280;57398;52.032;4.376;2023-11-21T01:31:35;102032.09;;;7.01;100.00
70053;BME280;57398;52.032;4.376;2023-11-21T01:34:23;102046.63;;;7.02;100.00
70053;BME280;57398;52.032;4.376;2023-11-21T01:37:13;102084.25;;;7.05;100.00
70053;BME280;57398;52.032;4.376;2023-11-21T01:40:01;102083.44;;;7.04;100.00
70053;BME280;57398;52.032;4.376;2023-11-21T01:42:53;102089.59;;;7.03;100.00
70053;BME280;57398;52.032;4.376;2023-11-21T01:45:41;102102.50;;;7.03;100.00
70053;BME280;57398;52.032;4.376;2023-11-21T01:48:29;102106.03;;;7.02;100.00
70053;BME280;57398;52.032;4.376;2023-11-21T01:51:17;102110.41;;;7.02;100.00
70053;BME280;57398;52.032;4.376;2023-11-21T01:54:07;102119.59;;;7.04;100.00
70053;BME280;57398;52.032;4.376;2023-11-21T01:57:04;102136.22;;;7.10;100.00
70053;BME280;57398;52.032;4.376;2023-11-21T01:59:54;102132.69;;;7.11;100.00
70053;BME280;57398;52.032;4.376;2023-11-21T02:02:43;102145.75;;;7.18;100.00
70053;BME280;57398;52.032;4.376;2023-11-21T02:05:31;102154.47;;;7.25;100.00
70053;BME280;57398;52.032;4.376;2023-11-21T02:08:19;102169.00;;;7.26;100.00
70053;BME280;57398;52.032;4.376;2023-11-21T02:11:09;102193.72;;;7.37;100.00
70053;BME280;57398;52.032;4.376;2023-11-21T02:14:00;102231.03;;;7.34;100.00
70053;BME280;57398;52.032;4.376;2023-11-21T02:16:48;102248.16;;;7.35;100.00
70053;BME280;57398;52.032;4.376;2023-11-21T02:19:37;102294.69;;;7.35;100.00
70053;BME280;57398;52.032;4.376;2023-11-21T02:22:27;102305.03;;;7.35;100.00
70053;BME280;57398;52.032;4.376;2023-11-21T02:25:18;102316.50;;;7.41;100.00
70053;BME280;57398;52.032;4.376;2023-11-21T02:28:06;102330.38;;;7.40;100.00
70053;BME280;57398;52.032;4.376;2023-11-21T02:30:55;102331.38;;;7.39;100.00
70053;BME280;57398;52.032;4.376;2023-11-21T02:33:44;102342.03;;;7.44;100.00
70053;BME280;57398;52.032;4.376;2023-11-21T02:36:32;102340.91;;;7.46;100.00
70053;BME280;57398;52.032;4.376;2023-11-21T02:39:21;102342.69;;;7.46;100.00
70053;BME280;57398;52.032;4.376;2023-11-21T02:42:11;102346.91;;;7.47;100.00
70053;BME280;57398;52.032;4.376;2023-11-21T02:44:59;102359.50;;;7.50;100.00
70053;BME280;57398;52.032;4.376;2023-11-21T02:47:48;102365.31;;;7.52;100.00
70053;BME280;57398;52.032;4.376;2023-11-21T02:50:36;102370.31;;;7.53;100.00
70053;BME280;57398;52.032;4.376;2023-11-21T02:53:25;102373.56;;;7.55;100.00
70053;BME280;57398;52.032;4.376;2023-11-21T02:56:13;102379.56;;;7.56;100.00
70053;BME280;57398;52.032;4.376;2023-11-21T02:59:02;102395.38;;;7.53;100.00
70053;BME280;57398;52.032;4.376;2023-11-21T03:01:51;102408.31;;;7.53;100.00
70053;BME280;57398;52.032;4.376;2023-11-21T03:04:39;102434.00;;;7.54;100.00
70053;BME280;57398;52.032;4.376;2023-11-21T03:07:29;102441.63;;;7.56;100.00
70053;BME280;57398;52.032;4.376;2023-11-21T03:10:17;102450.66;;;7.60;100.00
70053;BME280;57398;52.032;4.376;2023-11-21T03:13:06;102475.56;;;7.61;100.00
70053;BME280;57398;52.032;4.376;2023-11-21T03:15:56;102487.22;;;7.65;100.00
70053;BME280;57398;52.032;4.376;2023-11-21T03:18:44;102484.31;;;7.68;100.00
70053;BME280;57398;52.032;4.376;2023-11-21T03:21:32;102485.13;;;7.69;100.00
70053;BME280;57398;52.032;4.376;2023-11-21T03:24:20;102490.78;;;7.72;100.00
70053;BME280;57398;52.032;4.376;2023-11-21T03:27:09;102495.50;;;7.77;100.00
70053;BME280;57398;52.032;4.376;2023-11-21T03:29:57;102469.63;;;7.77;100.00
70053;BME280;57398;52.032;4.376;2023-11-21T03:32:46;102471.06;;;7.80;100.00
70053;BME280;57398;52.032;4.376;2023-11-21T03:35:34;102471.72;;;7.82;100.00
70053;BME280;57398;52.032;4.376;2023-11-21T03:38:23;102466.22;;;7.85;100.00
70053;BME280;57398;52.032;4.376;2023-11-21T03:41:11;102478.03;;;7.87;100.00
70053;BME280;57398;52.032;4.376;2023-11-21T03:43:59;102463.50;;;7.86;100.00
70053;BME280;57398;52.032;4.376;2023-11-21T03:46:47;102455.25;;;7.91;100.00
70053;BME280;57398;52.032;4.376;2023-11-21T03:49:37;102456.84;;;7.92;100.00
70053;BME280;57398;52.032;4.376;2023-11-21T03:52:25;102422.91;;;7.95;100.00
70053;BME280;57398;52.032;4.376;2023-11-21T03:55:14;102391.88;;;7.95;100.00
70053;BME280;57398;52.032;4.376;2023-11-21T03:58:02;102380.53;;;7.96;100.00
70053;BME280;57398;52.032;4.376;2023-11-21T04:00:50;102377.78;;;7.97;100.00
70053;BME280;57398;52.032;4.376;2023-11-21T04:03:38;102380.84;;;8.01;100.00
70053;BME280;57398;52.032;4.376;2023-11-21T04:06:28;102392.00;;;8.02;100.00
70053;BME280;57398;52.032;4.376;2023-11-21T04:09:16;102339.94;;;8.05;100.00
70053;BME280;57398;52.032;4.376;2023-11-21T04:12:04;102351.09;;;8.05;100.00
70053;BME280;57398;52.032;4.376;2023-11-21T04:14:53;102356.91;;;8.07;100.00
70053;BME280;57398;52.032;4.376;2023-11-21T04:17:42;102342.03;;;8.09;100.00
70053;BME280;57398;52.032;4.376;2023-11-21T04:20:30;102352.03;;;8.12;100.00
70053;BME280;57398;52.032;4.376;2023-11-21T04:23:20;102351.72;;;8.15;100.00
70053;BME280;57398;52.032;4.376;2023-11-21T04:26:08;102358.50;;;8.16;100.00
70053;BME280;57398;52.032;4.376;2023-11-21T04:28:56;102363.34;;;8.19;100.00
70053;BME280;57398;52.032;4.376;2023-11-21T04:31:44;102363.34;;;8.19;100.00
70053;BME280;57398;52.032;4.376;2023-11-21T04:34:33;102368.88;;;8.25;100.00
70053;BME280;57398;52.032;4.376;2023-11-21T04:37:21;102381.47;;;8.28;100.00
70053;BME280;57398;52.032;4.376;2023-11-21T04:40:11;102400.06;;;8.31;100.00
70053;BME280;57398;52.032;4.376;2023-11-21T04:42:59;102408.97;;;8.37;100.00
70053;BME280;57398;52.032;4.376;2023-11-21T04:45:48;102430.16;;;8.41;100.00
70053;BME280;57398;52.032;4.376;2023-11-21T04:48:36;102432.25;;;8.37;100.00
70053;BME280;57398;52.032;4.376;2023-11-21T04:51:24;102452.47;;;8.33;100.00
70053;BME280;57398;52.032;4.376;2023-11-21T04:54:13;102472.53;;;8.31;100.00
70053;BME280;57398;52.032;4.376;2023-11-21T04:57:03;102484.03;;;8.29;100.00
70053;BME280;57398;52.032;4.376;2023-11-21T04:59:51;102515.78;;;8.23;100.00
70053;BME280;57398;52.032;4.376;2023-11-21T05:02:40;102545.69;;;8.09;100.00
70053;BME280;57398;52.032;4.376;2023-11-21T05:05:28;102662.91;;;7.93;100.00
70053;BME280;57398;52.032;4.376;2023-11-21T05:08:16;102829.91;;;7.87;100.00
70053;BME280;57398;52.032;4.376;2023-11-21T05:11:06;102875.59;;;7.79;100.00
70053;BME280;57398;52.032;4.376;2023-11-21T05:13:58;102873.28;;;7.67;100.00
70053;BME280;57398;52.032;4.376;2023-11-21T05:16:48;102881.09;;;7.58;100.00
70053;BME280;57398;52.032;4.376;2023-11-21T05:19:37;102883.91;;;7.64;100.00
70053;BME280;57398;52.032;4.376;2023-11-21T05:22:27;102890.84;;;7.64;100.00
70053;BME280;57398;52.032;4.376;2023-11-21T05:25:15;102897.81;;;7.63;100.00
70053;BME280;57398;52.032;4.376;2023-11-21T05:28:05;102904.16;;;7.69;100.00
70053;BME280;57398;52.032;4.376;2023-11-21T05:30:54;102913.63;;;7.78;100.00
70053;BME280;57398;52.032;4.376;2023-11-21T05:34:00;102914.28;;;7.98;100.00
70053;BME280;57398;52.032;4.376;2023-11-21T05:36:48;102905.69;;;7.97;100.00
70053;BME280;57398;52.032;4.376;2023-11-21T05:39:36;102903.09;;;8.15;100.00
70053;BME280;57398;52.032;4.376;2023-11-21T05:42:24;102896.69;;;8.28;100.00
70053;BME280;57398;52.032;4.376;2023-11-21T05:45:12;102886.09;;;8.39;100.00
70053;BME280;57398;52.032;4.376;2023-11-21T05:48:01;102892.16;;;8.48;100.00
70053;BME280;57398;52.032;4.376;2023-11-21T05:50:50;102889.56;;;8.48;100.00
70053;BME280;57398;52.032;4.376;2023-11-21T05:53:38;102901.59;;;8.57;100.00
70053;BME280;57398;52.032;4.376;2023-11-21T05:56:26;102907.44;;;8.59;100.00
70053;BME280;57398;52.032;4.376;2023-11-21T05:59:14;102906.34;;;8.70;100.00
70053;BME280;57398;52.032;4.376;2023-11-21T06:02:02;102894.38;;;8.69;100.00
70053;BME280;57398;52.032;4.376;2023-11-21T06:04:53;102896.97;;;8.69;100.00
70053;BME280;57398;52.032;4.376;2023-11-21T06:07:41;102893.72;;;8.67;100.00
70053;BME280;57398;52.032;4.376;2023-11-21T06:10:29;102910.09;;;8.75;100.00
70053;BME280;57398;52.032;4.376;2023-11-21T06:13:17;102908.47;;;8.74;100.00
70053;BME280;57398;52.032;4.376;2023-11-21T06:16:07;102905.06;;;8.74;100.00
70053;BME280;57398;52.032;4.376;2023-11-21T06:18:56;102907.94;;;8.63;100.00
70053;BME280;57398;52.032;4.376;2023-11-21T06:21:46;102919.72;;;8.57;100.00
70053;BME280;57398;52.032;4.376;2023-11-21T06:24:34;102918.81;;;8.40;100.00
70053;BME280;57398;52.032;4.376;2023-11-21T06:27:23;102920.88;;;8.36;100.00
70053;BME280;57398;52.032;4.376;2023-11-21T06:30:12;102921.91;;;8.44;100.00
70053;BME280;57398;52.032;4.376;2023-11-21T06:33:01;102924.88;;;8.31;100.00
70053;BME280;57398;52.032;4.376;2023-11-21T06:35:50;102932.09;;;8.45;100.00
70053;BME280;57398;52.032;4.376;2023-11-21T06:38:39;102930.22;;;8.29;100.00
70053;BME280;57398;52.032;4.376;2023-11-21T06:41:27;102933.88;;;8.45;100.00
70053;BME280;57398;52.032;4.376;2023-11-21T06:44:16;102940.25;;;8.50;100.00
70053;BME280;57398;52.032;4.376;2023-11-21T06:47:05;102945.56;;;8.49;100.00
70053;BME280;57398;52.032;4.376;2023-11-21T06:49:53;102947.91;;;8.60;100.00
70053;BME280;57398;52.032;4.376;2023-11-21T06:52:41;102952.75;;;8.55;100.00
70053;BME280;57398;52.032;4.376;2023-11-21T06:55:31;102960.25;;;8.66;100.00
70053;BME280;57398;52.032;4.376;2023-11-21T06:58:19;102958.41;;;8.58;100.00
70053;BME280;57398;52.032;4.376;2023-11-21T07:01:07;102969.03;;;8.47;100.00
70053;BME280;57398;52.032;4.376;2023-11-21T07:03:55;102975.06;;;8.56;100.00
70053;BME280;57398;52.032;4.376;2023-11-21T07:06:43;102974.97;;;8.66;100.00
70053;BME280;57398;52.032;4.376;2023-11-21T07:09:31;102987.94;;;8.66;100.00
70053;BME280;57398;52.032;4.376;2023-11-21T07:12:23;103003.41;;;8.75;100.00
70053;BME280;57398;52.032;4.376;2023-11-21T07:15:12;103015.13;;;8.88;100.00
70053;BME280;57398;52.032;4.376;2023-11-21T07:18:00;103031.19;;;8.91;100.00
70053;BME280;57398;52.032;4.376;2023-11-21T07:20:49;103046.75;;;8.91;100.00
70053;BME280;57398;52.032;4.376;2023-11-21T07:23:37;103058.13;;;8.98;100.00
70053;BME280;57398;52.032;4.376;2023-11-21T07:26:25;103066.56;;;9.00;100.00
70053;BME280;57398;52.032;4.376;2023-11-21T07:29:14;103078.75;;;9.08;100.00
70053;BME280;57398;52.032;4.376;2023-11-21T07:32:03;103087.41;;;9.17;100.00
70053;BME280;57398;52.032;4.376;2023-11-21T07:34:51;103102.28;;;9.15;100.00
70053;BME280;57398;52.032;4.376;2023-11-21T07:37:39;103084.16;;;9.15;100.00
70053;BME280;57398;52.032;4.376;2023-11-21T07:40:27;103055.31;;;9.18;100.00
70053;BME280;57398;52.032;4.376;2023-11-21T07:43:17;103027.44;;;9.20;100.00
70053;BME280;57398;52.032;4.376;2023-11-21T07:46:07;102976.91;;;9.24;100.00
70053;BME280;57398;52.032;4.376;2023-11-21T07:48:55;102934.94;;;9.29;100.00
70053;BME280;57398;52.032;4.376;2023-11-21T07:51:44;102873.81;;;9.34;100.00
70053;BME280;57398;52.032;4.376;2023-11-21T07:54:31;102882.44;;;9.35;100.00
70053;BME280;57398;52.032;4.376;2023-11-21T07:57:22;102820.66;;;9.38;100.00
70053;BME280;57398;52.032;4.376;2023-11-21T08:00:11;102788.41;;;9.41;100.00
70053;BME280;57398;52.032;4.376;2023-11-21T08:03:03;102775.75;;;9.38;100.00
70053;BME280;57398;52.032;4.376;2023-11-21T08:05:51;102819.84;;;9.38;100.00
70053;BME280;57398;52.032;4.376;2023-11-21T08:08:39;102907.06;;;9.39;100.00
70053;BME280;57398;52.032;4.376;2023-11-21T08:11:27;102919.72;;;9.42;100.00
70053;BME280;57398;52.032;4.376;2023-11-21T08:14:16;102407.31;;;9.39;100.00
70053;BME280;57398;52.032;4.376;2023-11-21T08:17:04;102241.75;;;9.43;100.00
70053;BME280;57398;52.032;4.376;2023-11-21T08:19:55;102225.03;;;9.46;100.00
70053;BME280;57398;52.032;4.376;2023-11-21T08:22:45;102207.88;;;9.44;100.00
70053;BME280;57398;52.032;4.376;2023-11-21T08:25:34;102194.53;;;9.48;100.00
70053;BME280;57398;52.032;4.376;2023-11-21T08:28:22;102180.88;;;9.54;100.00
70053;BME280;57398;52.032;4.376;2023-11-21T08:31:12;102179.88;;;9.55;100.00
70053;BME280;57398;52.032;4.376;2023-11-21T08:34:02;102175.00;;;9.60;100.00
70053;BME280;57398;52.032;4.376;2023-11-21T08:36:51;102168.00;;;9.60;100.00
70053;BME280;57398;52.032;4.376;2023-11-21T08:39:39;102166.22;;;9.61;100.00
70053;BME280;57398;52.032;4.376;2023-11-21T08:42:28;102163.06;;;9.65;100.00
70053;BME280;57398;52.032;4.376;2023-11-21T08:45:17;102162.28;;;9.65;100.00
70053;BME280;57398;52.032;4.376;2023-11-21T08:48:05;102167.91;;;9.69;100.00
70053;BME280;57398;52.032;4.376;2023-11-21T08:50:53;102175.50;;;9.70;100.00
70053;BME280;57398;52.032;4.376;2023-11-21T08:53:46;102192.34;;;9.74;100.00
70053;BME280;57398;52.032;4.376;2023-11-21T08:56:34;102199.13;;;9.75;100.00
70053;BME280;57398;52.032;4.376;2023-11-21T08:59:22;102193.94;;;9.75;100.00
70053;BME280;57398;52.032;4.376;2023-11-21T09:02:10;102208.16;;;9.79;100.00
70053;BME280;57398;52.032;4.376;2023-11-21T09:04:58;102220.34;;;9.79;100.00
70053;BME280;57398;52.032;4.376;2023-11-21T09:07:49;102220.19;;;9.80;100.00
70053;BME280;57398;52.032;4.376;2023-11-21T09:10:39;102223.09;;;9.77;100.00
70053;BME280;57398;52.032;4.376;2023-11-21T09:13:29;102237.09;;;9.76;100.00
70053;BME280;57398;52.032;4.376;2023-11-21T09:16:17;102242.28;;;9.76;100.00
70053;BME280;57398;52.032;4.376;2023-11-21T09:19:05;102243.88;;;9.77;100.00
70053;BME280;57398;52.032;4.376;2023-11-21T09:21:53;102249.06;;;9.77;100.00
70053;BME280;57398;52.032;4.376;2023-11-21T09:24:41;102257.09;;;9.82;100.00
70053;BME280;57398;52.032;4.376;2023-11-21T09:27:30;102261.75;;;9.87;100.00
70053;BME280;57398;52.032;4.376;2023-11-21T09:30:20;102273.25;;;9.93;100.00
70053;BME280;57398;52.032;4.376;2023-11-21T09:33:09;102284.00;;;9.90;100.00
70053;BME280;57398;52.032;4.376;2023-11-21T09:35:57;102292.75;;;9.89;100.00
70053;BME280;57398;52.032;4.376;2023-11-21T09:38:46;102306.53;;;9.89;100.00
70053;BME280;57398;52.032;4.376;2023-11-21T09:41:42;102275.97;;;9.61;100.00
70053;BME280;57398;52.032;4.376;2023-11-21T09:44:43;102328.44;;;9.86;100.00
70053;BME280;57398;52.032;4.376;2023-11-21T09:47:40;102332.47;;;9.89;100.00
70053;BME280;57398;52.032;4.376;2023-11-21T09:50:30;102338.84;;;9.86;100.00
70053;BME280;57398;52.032;4.376;2023-11-21T09:53:21;102344.38;;;9.83;100.00
70053;BME280;57398;52.032;4.376;2023-11-21T09:56:12;102350.75;;;9.96;100.00
70053;BME280;57398;52.032;4.376;2023-11-21T09:59:17;102377.34;;;9.98;100.00
70053;BME280;57398;52.032;4.376;2023-11-21T10:02:11;102378.41;;;9.89;100.00
70053;BME280;57398;52.032;4.376;2023-11-21T10:05:06;102402.03;;;9.94;100.00
70053;BME280;57398;52.032;4.376;2023-11-21T10:07:56;102418.44;;;9.94;100.00
70053;BME280;57398;52.032;4.376;2023-11-21T10:10:53;102417.97;;;9.91;100.00
70053;BME280;57398;52.032;4.376;2023-11-21T10:13:47;102433.69;;;9.89;100.00
70053;BME280;57398;52.032;4.376;2023-11-21T10:16:38;102442.38;;;9.81;100.00
70053;BME280;57398;52.032;4.376;2023-11-21T10:19:28;102452.47;;;9.76;100.00
70053;BME280;57398;52.032;4.376;2023-11-21T10:22:17;102456.53;;;9.71;100.00
70053;BME280;57398;52.032;4.376;2023-11-21T10:25:07;102474.06;;;9.69;100.00
70053;BME280;57398;52.032;4.376;2023-11-21T10:27:58;102469.22;;;9.65;100.00
70053;BME280;57398;52.032;4.376;2023-11-21T10:30:47;102476.03;;;9.67;100.00
70053;BME280;57398;52.032;4.376;2023-11-21T10:33:35;102485.44;;;9.68;100.00
70053;BME280;57398;52.032;4.376;2023-11-21T10:36:28;102483.81;;;9.67;100.00
70053;BME280;57398;52.032;4.376;2023-11-21T10:39:17;102484.97;;;9.64;100.00
70053;BME280;57398;52.032;4.376;2023-11-21T10:42:08;102498.56;;;9.66;100.00
70053;BME280;57398;52.032;4.376;2023-11-21T10:44:56;102492.44;;;9.67;100.00
70053;BME280;57398;52.032;4.376;2023-11-21T10:47:44;102491.59;;;9.67;100.00
70053;BME280;57398;52.032;4.376;2023-11-21T10:50:33;102500.00;;;9.69;100.00
70053;BME280;57398;52.032;4.376;2023-11-21T10:53:22;102506.84;;;9.70;100.00
70053;BME280;57398;52.032;4.376;2023-11-21T10:56:13;102498.69;;;9.73;100.00
70053;BME280;57398;52.032;4.376;2023-11-21T10:59:08;102502.09;;;9.73;100.00
70053;BME280;57398;52.032;4.376;2023-11-21T11:01:58;102494.94;;;9.75;100.00
70053;BME280;57398;52.032;4.376;2023-11-21T11:04:52;102503.38;;;9.77;100.00
70053;BME280;57398;52.032;4.376;2023-11-21T11:07:43;102505.00;;;9.78;100.00
70053;BME280;57398;52.032;4.376;2023-11-21T11:10:34;102513.75;;;9.77;100.00
70053;BME280;57398;52.032;4.376;2023-11-21T11:13:22;102511.81;;;9.79;100.00
70053;BME280;57398;52.032;4.376;2023-11-21T11:16:11;102504.66;;;9.81;100.00
70053;BME280;57398;52.032;4.376;2023-11-21T11:19:04;102512.22;;;9.91;100.00
70053;BME280;57398;52.032;4.376;2023-11-21T11:22:00;102505.59;;;9.89;100.00
70053;BME280;57398;52.032;4.376;2023-11-21T11:25:18;102522.44;;;9.93;100.00
70053;BME280;57398;52.032;4.376;2023-11-21T11:28:14;102517.25;;;9.93;100.00
70053;BME280;57398;52.032;4.376;2023-11-21T11:31:05;102527.00;;;9.91;100.00
70053;BME280;57398;52.032;4.376;2023-11-21T11:34:01;102528.53;;;10.00;100.00
70053;BME280;57398;52.032;4.376;2023-11-21T11:36:59;102539.41;;;10.03;100.00
70053;BME280;57398;52.032;4.376;2023-11-21T11:39:49;102530.16;;;10.01;100.00
70053;BME280;57398;52.032;4.376;2023-11-21T11:42:37;102534.09;;;9.97;100.00
70053;BME280;57398;52.032;4.376;2023-11-21T11:45:32;102532.81;;;9.93;100.00
70053;BME280;57398;52.032;4.376;2023-11-21T11:48:22;102536.50;;;9.98;100.00
70053;BME280;57398;52.032;4.376;2023-11-21T11:51:11;102546.31;;;10.11;100.00
70053;BME280;57398;52.032;4.376;2023-11-21T11:54:01;102542.56;;;10.14;100.00
70053;BME280;57398;52.032;4.376;2023-11-21T11:56:49;102555.19;;;10.17;100.00
70053;BME280;57398;52.032;4.376;2023-11-21T12:00:07;102556.72;;;10.11;100.00
70053;BME280;57398;52.032;4.376;2023-11-21T12:02:59;102567.09;;;10.11;100.00
70053;BME280;57398;52.032;4.376;2023-11-21T12:05:50;102562.06;;;10.10;100.00
70053;BME280;57398;52.032;4.376;2023-11-21T12:08:45;102579.44;;;10.09;100.00
70053;BME280;57398;52.032;4.376;2023-11-21T12:11:33;102581.16;;;9.94;100.00
70053;BME280;57398;52.032;4.376;2023-11-21T12:14:22;102579.56;;;9.84;100.00
70053;BME280;57398;52.032;4.376;2023-11-21T12:17:10;102586.78;;;9.74;100.00
70053;BME280;57398;52.032;4.376;2023-11-21T12:20:03;102582.53;;;9.73;100.00
70053;BME280;57398;52.032;4.376;2023-11-21T12:22:53;102588.66;;;9.89;100.00
70053;BME280;57398;52.032;4.376;2023-11-21T12:25:42;102586.53;;;9.92;100.00
70053;BME280;57398;52.032;4.376;2023-11-21T12:28:30;102588.25;;;10.00;100.00
70053;BME280;57398;52.032;4.376;2023-11-21T12:31:19;102590.97;;;10.06;100.00
70053;BME280;57398;52.032;4.376;2023-11-21T12:34:08;102587.50;;;10.14;100.00
70053;BME280;57398;52.032;4.376;2023-11-21T12:36:59;102591.22;;;10.20;100.00
70053;BME280;57398;52.032;4.376;2023-11-21T12:39:47;102593.81;;;10.20;100.00
70053;BME280;57398;52.032;4.376;2023-11-21T12:42:36;102610.22;;;10.20;100.00
70053;BME280;57398;52.032;4.376;2023-11-21T12:45:26;102606.56;;;10.06;100.00
70053;BME280;57398;52.032;4.376;2023-11-21T12:48:14;102618.56;;;10.07;100.00
70053;BME280;57398;52.032;4.376;2023-11-21T12:51:10;102618.22;;;10.11;100.00
70053;BME280;57398;52.032;4.376;2023-11-21T12:54:00;102635.13;;;10.06;100.00
70053;BME280;57398;52.032;4.376;2023-11-21T12:56:49;102642.63;;;10.01;100.00
70053;BME280;57398;52.032;4.376;2023-11-21T12:59:38;102641.63;;;10.02;100.00
70053;BME280;57398;52.032;4.376;2023-11-21T13:02:30;102639.84;;;10.03;100.00
70053;BME280;57398;52.032;4.376;2023-11-21T13:05:23;102650.88;;;10.05;100.00
70053;BME280;57398;52.032;4.376;2023-11-21T13:08:13;102653.47;;;10.05;100.00
70053;BME280;57398;52.032;4.376;2023-11-21T13:11:06;102660.59;;;10.03;100.00
70053;BME280;57398;52.032;4.376;2023-11-21T13:13:55;102655.25;;;10.04;100.00
70053;BME280;57398;52.032;4.376;2023-11-21T13:16:43;102666.63;;;10.03;100.00
70053;BME280;57398;52.032;4.376;2023-11-21T13:19:33;102668.41;;;10.03;100.00
70053;BME280;57398;52.032;4.376;2023-11-21T13:22:21;102677.81;;;10.04;100.00
70053;BME280;57398;52.032;4.376;2023-11-21T13:25:11;102673.59;;;10.03;100.00
70053;BME280;57398;52.032;4.376;2023-11-21T13:28:03;102662.25;;;9.96;100.00
70053;BME280;57398;52.032;4.376;2023-11-21T13:30:51;102676.25;;;9.95;100.00
70053;BME280;57398;52.032;4.376;2023-11-21T13:33:40;102687.94;;;9.91;100.00
70053;BME280;57398;52.032;4.376;2023-11-21T13:36:30;102683.25;;;9.86;100.00
70053;BME280;57398;52.032;4.376;2023-11-21T13:39:20;102688.94;;;9.81;100.00
70053;BME280;57398;52.032;4.376;2023-11-21T13:42:08;102677.91;;;9.79;100.00
70053;BME280;57398;52.032;4.376;2023-11-21T13:44:59;102677.91;;;9.79;100.00
70053;BME280;57398;52.032;4.376;2023-11-21T13:47:47;102684.38;;;9.83;100.00
70053;BME280;57398;52.032;4.376;2023-11-21T13:50:37;102681.28;;;9.88;100.00
70053;BME280;57398;52.032;4.376;2023-11-21T13:53:29;102699.63;;;9.86;100.00
70053;BME280;57398;52.032;4.376;2023-11-21T13:56:18;102695.56;;;9.84;100.00
70053;BME280;57398;52.032;4.376;2023-11-21T13:59:11;102705.81;;;9.77;100.00
70053;BME280;57398;52.032;4.376;2023-11-21T14:02:10;102716.03;;;9.79;100.00
70053;BME280;57398;52.032;4.376;2023-11-21T14:05:07;102712.00;;;9.68;100.00
70053;BME280;57398;52.032;4.376;2023-11-21T14:07:56;102712.84;;;9.60;100.00
70053;BME280;57398;52.032;4.376;2023-11-21T14:10:50;102717.72;;;9.55;100.00
70053;BME280;57398;52.032;4.376;2023-11-21T14:13:42;102717.06;;;9.45;100.00
70053;BME280;57398;52.032;4.376;2023-11-21T14:16:33;102720.81;;;9.51;100.00
70053;BME280;57398;52.032;4.376;2023-11-21T14:19:23;102719.00;;;9.51;100.00
70053;BME280;57398;52.032;4.376;2023-11-21T14:22:14;102726.75;;;9.59;100.00
70053;BME280;57398;52.032;4.376;2023-11-21T14:25:04;102722.88;;;9.72;100.00
70053;BME280;57398;52.032;4.376;2023-11-21T14:27:53;102719.97;;;9.58;100.00
70053;BME280;57398;52.032;4.376;2023-11-21T14:30:41;102725.66;;;9.54;100.00
70053;BME280;57398;52.032;4.376;2023-11-21T14:33:29;102734.09;;;9.56;100.00
70053;BME280;57398;52.032;4.376;2023-11-21T14:36:21;102724.00;;;9.61;100.00
70053;BME280;57398;52.032;4.376;2023-11-21T14:39:10;102725.97;;;9.59;100.00
70053;BME280;57398;52.032;4.376;2023-11-21T14:42:10;102732.28;;;9.56;100.00
70053;BME280;57398;52.032;4.376;2023-11-21T14:44:58;102733.28;;;9.47;100.00